createdAt,value
2022-08-26T00:00:34.405Z,21.50
2022-08-26T00:03:28.746Z,14.48
2022-08-26T00:09:08.106Z,12.90
2022-08-26T00:14:13.630Z,15.68
2022-08-26T00:16:57.005Z,15.07
2022-08-26T00:19:34.785Z,15.35
2022-08-26T00:24:51.091Z,16.55
2022-08-26T00:27:34.274Z,11.57
2022-08-26T00:30:13.260Z,14.93
2022-08-26T00:33:21.211Z,14.07
2022-08-26T00:36:09.115Z,16.63
2022-08-26T00:39:01.967Z,13.82
2022-08-26T00:41:38.820Z,15.77
2022-08-26T00:44:18.210Z,15.68
2022-08-26T00:47:03.313Z,15.07
2022-08-26T00:49:54.770Z,11.10
2022-08-26T00:53:03.230Z,21.95
2022-08-26T00:55:42.430Z,14.40
2022-08-26T00:58:43.326Z,12.60
2022-08-26T01:01:24.611Z,13.02
2022-08-26T01:04:06.561Z,23.05
2022-08-26T01:06:45.197Z,17.00
2022-08-26T01:09:44.253Z,15.07
2022-08-26T01:12:27.221Z,12.48
2022-08-26T01:15:32.899Z,20.92
2022-08-26T01:18:08.457Z,16.30
2022-08-26T01:20:57.954Z,18.60
2022-08-26T01:23:59.315Z,14.63
2022-08-26T01:26:59.523Z,17.25
2022-08-26T01:29:45.691Z,21.08
2022-08-26T01:32:25.292Z,11.43
2022-08-26T01:35:10.928Z,19.92
2022-08-26T01:37:51.209Z,15.30
2022-08-26T01:40:52.040Z,15.13
2022-08-26T01:43:42.680Z,11.43
2022-08-26T01:46:19.353Z,23.25
2022-08-26T01:49:14.721Z,17.77
2022-08-26T01:51:54.806Z,23.15
2022-08-26T01:57:40.557Z,23.17
2022-08-26T02:00:28.941Z,20.42
2022-08-26T02:03:20.510Z,19.23
2022-08-26T02:06:04.493Z,17.08
2022-08-26T02:08:50.503Z,21.02
2022-08-26T02:11:26.620Z,18.75
2022-08-26T02:14:04.481Z,21.95
2022-08-26T02:16:48.562Z,23.30
2022-08-26T02:19:36.256Z,17.10
2022-08-26T02:25:32.628Z,16.85
2022-08-26T02:28:12.400Z,23.08
2022-08-26T02:30:45.686Z,19.95
2022-08-26T02:33:25.356Z,21.98
2022-08-26T02:38:50.432Z,22.58
2022-08-26T02:42:05.597Z,20.58
2022-08-26T02:44:53.243Z,27.23
2022-08-26T02:48:12.905Z,28.63
2022-08-26T02:50:52.092Z,25.67
2022-08-26T02:53:31.943Z,20.45
2022-08-26T02:56:09.784Z,24.13
2022-08-26T02:58:40.816Z,19.55
2022-08-26T03:01:51.796Z,22.58
2022-08-26T03:04:57.779Z,19.73
2022-08-26T03:07:43.720Z,30.30
2022-08-26T03:10:22.566Z,25.38
2022-08-26T03:13:05.602Z,18.10
2022-08-26T03:15:38.806Z,21.98
2022-08-26T03:18:11.050Z,24.55
2022-08-26T03:20:56.349Z,23.25
2022-08-26T03:23:36.658Z,25.63
2022-08-26T03:29:33.179Z,26.25
2022-08-26T03:32:30.362Z,20.75
2022-08-26T03:38:02.011Z,30.60
2022-08-26T03:40:52.882Z,27.77
2022-08-26T03:43:28.454Z,28.20
2022-08-26T03:48:59.770Z,25.88
2022-08-26T03:51:38.939Z,22.25
2022-08-26T03:54:38.819Z,25.63
2022-08-26T03:57:18.345Z,27.75
2022-08-26T03:59:54.416Z,30.95
2022-08-26T04:02:27.309Z,25.30
2022-08-26T04:05:13.975Z,25.90
2022-08-26T04:08:08.087Z,28.02
2022-08-26T04:11:07.405Z,26.10
2022-08-26T04:13:54.613Z,29.50
2022-08-26T04:16:36.825Z,29.15
2022-08-26T04:19:08.693Z,29.00
2022-08-26T04:21:48.365Z,29.05
2022-08-26T04:27:18.469Z,29.65
2022-08-26T04:29:51.420Z,34.95
2022-08-26T04:32:28.903Z,39.03
2022-08-26T04:35:03.403Z,40.42
2022-08-26T04:37:35.457Z,31.48
2022-08-26T04:40:05.674Z,26.60
2022-08-26T04:42:34.998Z,44.05
2022-08-26T04:45:15.124Z,40.30
2022-08-26T04:47:48.991Z,28.60
2022-08-26T04:50:23.707Z,32.63
2022-08-26T04:52:52.263Z,35.47
2022-08-26T04:55:19.467Z,34.35
2022-08-26T04:57:47.408Z,41.55
2022-08-26T05:00:15.382Z,32.13
2022-08-26T05:02:42.617Z,28.27
2022-08-26T05:05:10.743Z,42.40
2022-08-26T05:07:38.449Z,46.10
2022-08-26T05:10:08.779Z,49.60
2022-08-26T05:12:36.134Z,40.72
2022-08-26T05:15:05.638Z,39.80
2022-08-26T05:17:33.556Z,49.58
2022-08-26T05:20:00.608Z,44.45
2022-08-26T05:22:27.792Z,44.38
2022-08-26T05:24:54.775Z,46.10
2022-08-26T05:27:26.858Z,55.30
2022-08-26T05:29:57.284Z,50.22
2022-08-26T05:32:24.662Z,53.72
2022-08-26T05:34:57.883Z,66.13
2022-08-26T05:37:25.446Z,56.85
2022-08-26T05:39:52.578Z,63.28
2022-08-26T05:42:20.017Z,77.93
2022-08-26T05:47:24.163Z,94.10
2022-08-26T05:49:51.502Z,98.38
2022-08-26T05:52:20.149Z,102.00
2022-08-26T05:57:15.049Z,119.53
2022-08-26T05:59:42.156Z,126.95
2022-08-26T06:02:09.879Z,126.60
2022-08-26T06:04:36.859Z,158.90
2022-08-26T06:07:03.839Z,150.85
2022-08-26T06:09:38.511Z,154.73
2022-08-26T06:12:06.041Z,169.77
2022-08-26T06:19:33.003Z,203.65
2022-08-26T06:22:23.564Z,187.55
2022-08-26T06:25:09.940Z,200.40
2022-08-26T06:27:37.171Z,197.50
2022-08-26T06:30:04.587Z,212.93
2022-08-26T06:32:31.834Z,223.07
2022-08-26T06:34:59.246Z,207.25
2022-08-26T06:37:26.329Z,301.23
2022-08-26T06:39:53.386Z,244.10
2022-08-26T06:42:20.444Z,263.38
2022-08-26T06:44:47.880Z,240.90
2022-08-26T06:47:15.150Z,257.05
2022-08-26T06:49:42.097Z,248.18
2022-08-26T06:52:11.834Z,241.30
2022-08-26T06:54:43.030Z,216.30
2022-08-26T06:57:11.581Z,254.40
2022-08-26T06:59:41.457Z,208.07
2022-08-26T07:02:13.532Z,207.90
2022-08-26T07:04:41.294Z,221.32
2022-08-26T07:07:09.745Z,221.85
2022-08-26T07:09:37.567Z,252.38
2022-08-26T07:12:06.810Z,167.88
2022-08-26T07:14:35.473Z,165.20
2022-08-26T07:17:02.863Z,156.68
2022-08-26T07:19:31.870Z,154.88
2022-08-26T07:22:05.423Z,149.30
2022-08-26T07:24:38.568Z,119.25
2022-08-26T07:27:08.910Z,110.03
2022-08-26T07:29:38.958Z,119.38
2022-08-26T07:32:07.583Z,110.97
2022-08-26T07:34:36.699Z,108.97
2022-08-26T07:37:05.308Z,100.28
2022-08-26T07:39:36.325Z,77.75
2022-08-26T07:42:07.878Z,97.70
2022-08-26T07:44:37.053Z,76.07
2022-08-26T07:47:10.579Z,85.30
2022-08-26T07:49:57.669Z,75.35
2022-08-26T07:52:28.113Z,79.32
2022-08-26T07:54:58.135Z,72.07
2022-08-26T07:57:26.776Z,78.18
2022-08-26T07:59:55.432Z,67.22
2022-08-26T08:02:24.141Z,60.05
2022-08-26T08:04:52.325Z,73.55
2022-08-26T08:07:19.774Z,67.70
2022-08-26T08:09:53.339Z,81.45
2022-08-26T08:12:21.697Z,71.75
2022-08-26T08:14:49.873Z,63.33
2022-08-26T08:17:17.139Z,75.15
2022-08-26T08:19:46.139Z,61.15
2022-08-26T08:22:17.953Z,80.07
2022-08-26T08:24:53.320Z,55.95
2022-08-26T08:27:23.820Z,82.25
2022-08-26T08:29:57.048Z,93.00
2022-08-26T08:32:28.760Z,62.75
2022-08-26T08:34:59.508Z,68.93
2022-08-26T08:37:26.818Z,66.65
2022-08-26T08:39:56.597Z,69.97
2022-08-26T08:45:49.573Z,71.63
2022-08-26T08:48:27.776Z,71.35
2022-08-26T08:51:13.935Z,70.68
2022-08-26T08:53:44.532Z,58.42
2022-08-26T08:56:23.877Z,76.35
2022-08-26T08:59:17.111Z,76.70
2022-08-26T09:02:20.695Z,65.15
2022-08-26T09:04:59.793Z,74.50
2022-08-26T09:07:37.579Z,60.85
2022-08-26T09:10:26.310Z,69.28
2022-08-26T09:12:57.395Z,70.03
2022-08-26T09:15:51.404Z,62.70
2022-08-26T09:18:40.745Z,63.65
2022-08-26T09:21:10.665Z,58.80
2022-08-26T09:23:41.850Z,55.83
2022-08-26T09:26:29.660Z,60.67
2022-08-26T09:29:03.933Z,70.68
2022-08-26T09:31:34.140Z,63.60
2022-08-26T09:34:20.749Z,59.47
2022-08-26T09:36:56.220Z,68.88
2022-08-26T09:39:34.300Z,73.00
2022-08-26T09:42:09.747Z,55.00
2022-08-26T09:45:07.630Z,65.85
2022-08-26T09:47:39.742Z,65.00
2022-08-26T09:50:18.871Z,69.93
2022-08-26T09:52:48.134Z,68.30
2022-08-26T09:55:21.998Z,58.83
2022-08-26T09:57:51.770Z,66.47
2022-08-26T10:00:27.365Z,52.90
2022-08-26T10:03:07.262Z,52.88
2022-08-26T10:05:44.018Z,54.88
2022-08-26T10:08:44.143Z,68.05
2022-08-26T10:11:37.586Z,57.72
2022-08-26T10:14:22.584Z,52.45
2022-08-26T10:17:22.125Z,58.20
2022-08-26T10:19:57.849Z,58.53
2022-08-26T10:22:35.022Z,50.25
2022-08-26T10:25:05.561Z,66.82
2022-08-26T10:27:53.636Z,65.88
2022-08-26T10:30:33.545Z,48.53
2022-08-26T10:33:12.295Z,46.80
2022-08-26T10:36:03.228Z,82.22
2022-08-26T10:38:35.601Z,48.63
2022-08-26T10:41:20.315Z,48.97
2022-08-26T10:43:58.603Z,51.17
2022-08-26T10:46:30.315Z,51.70
2022-08-26T10:49:10.548Z,55.55
2022-08-26T10:52:15.174Z,58.03
2022-08-26T10:55:15.938Z,55.30
2022-08-26T10:58:07.303Z,41.60
2022-08-26T11:01:10.819Z,45.63
2022-08-26T11:03:46.670Z,53.25
2022-08-26T11:06:19.792Z,51.22
2022-08-26T11:08:56.986Z,62.72
2022-08-26T11:11:42.643Z,58.85
2022-08-26T11:14:28.892Z,49.40
2022-08-26T11:19:45.615Z,49.22
2022-08-26T11:22:38.093Z,44.03
2022-08-26T11:25:30.044Z,50.95
2022-08-26T11:28:01.085Z,45.38
2022-08-26T11:30:36.833Z,43.97
2022-08-26T11:33:06.090Z,52.63
2022-08-26T11:35:39.217Z,51.22
2022-08-26T11:38:21.529Z,53.90
2022-08-26T11:41:06.118Z,41.90
2022-08-26T11:43:34.366Z,45.97
2022-08-26T11:46:11.778Z,43.35
2022-08-26T11:48:43.525Z,49.33
2022-08-26T11:51:23.175Z,42.47
2022-08-26T11:53:51.290Z,46.40
2022-08-26T11:56:28.759Z,51.65
2022-08-26T11:59:04.253Z,54.20
2022-08-26T12:01:35.810Z,36.10
2022-08-26T12:04:05.770Z,40.40
2022-08-26T12:06:43.358Z,44.35
2022-08-26T12:09:20.950Z,43.72
2022-08-26T12:11:48.105Z,46.50
2022-08-26T12:14:27.733Z,45.72
2022-08-26T12:16:55.611Z,44.22
2022-08-26T12:19:27.452Z,50.00
2022-08-26T12:22:23.693Z,50.55
2022-08-26T12:24:54.553Z,53.90
2022-08-26T12:27:31.354Z,47.33
2022-08-26T12:32:57.377Z,48.45
2022-08-26T12:35:28.661Z,47.53
2022-08-26T12:37:57.641Z,55.72
2022-08-26T12:40:45.727Z,43.28
2022-08-26T12:43:34.308Z,43.08
2022-08-26T12:46:01.631Z,46.10
2022-08-26T12:48:38.977Z,39.90
2022-08-26T12:51:21.944Z,34.75
2022-08-26T12:53:49.106Z,38.97
2022-08-26T12:59:27.629Z,41.05
2022-08-26T13:01:55.053Z,37.70
2022-08-26T13:04:43.807Z,43.88
2022-08-26T13:07:26.234Z,56.47
2022-08-26T13:09:56.299Z,45.17
2022-08-26T13:12:30.166Z,40.70
2022-08-26T13:14:58.947Z,35.60
2022-08-26T13:17:27.860Z,43.10
2022-08-26T13:19:58.951Z,44.78
2022-08-26T13:22:29.370Z,40.35
2022-08-26T13:24:57.085Z,37.10
2022-08-26T13:27:26.361Z,40.35
2022-08-26T13:29:54.137Z,33.53
2022-08-26T13:32:22.498Z,36.70
2022-08-26T13:35:13.338Z,32.40
2022-08-26T13:37:40.374Z,40.95
2022-08-26T13:40:13.450Z,32.58
2022-08-26T13:42:43.002Z,40.05
2022-08-26T13:45:17.512Z,48.95
2022-08-26T13:47:44.742Z,30.67
2022-08-26T13:50:14.873Z,36.35
2022-08-26T13:52:44.634Z,36.15
2022-08-26T13:55:15.837Z,25.00
2022-08-26T13:57:42.958Z,26.33
2022-08-26T14:02:43.215Z,20.25
2022-08-26T14:05:19.188Z,27.90
2022-08-26T14:07:53.926Z,33.47
2022-08-26T14:10:21.868Z,19.38
2022-08-26T14:12:51.688Z,23.73
2022-08-26T14:18:06.633Z,29.70
2022-08-26T14:20:37.329Z,23.20
2022-08-26T14:23:13.582Z,21.48
2022-08-26T14:25:41.457Z,19.05
2022-08-26T14:28:08.543Z,28.23
2022-08-26T14:30:37.187Z,22.45
2022-08-26T14:33:04.266Z,24.27
2022-08-26T14:37:58.535Z,18.17
2022-08-26T14:40:30.351Z,17.63
2022-08-26T14:42:58.643Z,16.80
2022-08-26T14:45:27.348Z,20.30
2022-08-26T14:47:58.730Z,24.60
2022-08-26T14:50:26.601Z,14.30
2022-08-26T14:53:12.382Z,19.15
2022-08-26T14:55:41.522Z,9.60
2022-08-26T14:58:09.777Z,19.13
2022-08-26T15:00:37.514Z,17.95
2022-08-26T15:03:05.601Z,13.07
2022-08-26T15:05:33.897Z,24.58
2022-08-26T15:08:02.234Z,24.02
2022-08-26T15:10:29.427Z,17.30
2022-08-26T15:12:56.281Z,21.98
2022-08-26T15:15:24.670Z,20.38
2022-08-26T15:17:51.685Z,16.50
2022-08-26T15:20:18.904Z,18.02
2022-08-26T15:22:46.047Z,19.80
2022-08-26T15:25:14.483Z,14.75
2022-08-26T15:27:41.518Z,14.50
2022-08-26T15:32:38.019Z,13.20
2022-08-26T15:35:09.037Z,14.02
2022-08-26T15:37:37.131Z,23.58
2022-08-26T15:40:05.102Z,16.63
2022-08-26T15:42:32.160Z,18.83
2022-08-26T15:44:59.516Z,15.15
2022-08-26T15:47:26.766Z,21.15
2022-08-26T15:49:58.906Z,13.10
2022-08-26T15:52:26.163Z,18.10
2022-08-26T15:57:20.174Z,22.38
2022-08-26T16:02:17.558Z,13.57
2022-08-26T16:04:44.586Z,16.42
2022-08-26T16:07:12.863Z,18.42
2022-08-26T16:09:39.848Z,9.68
2022-08-26T16:12:09.607Z,12.45
2022-08-26T16:14:36.584Z,17.83
2022-08-26T16:17:03.729Z,20.58
2022-08-26T16:19:30.624Z,17.98
2022-08-26T16:21:57.498Z,13.65
2022-08-26T16:24:30.090Z,15.48
2022-08-26T16:26:57.824Z,16.55
2022-08-26T16:29:24.945Z,16.13
2022-08-26T16:31:54.682Z,20.80
2022-08-26T16:34:22.496Z,14.57
2022-08-26T16:36:49.615Z,16.58
2022-08-26T16:39:16.568Z,16.55
2022-08-26T16:44:12.195Z,14.93
2022-08-26T16:46:39.753Z,26.20
2022-08-26T16:49:06.888Z,27.20
2022-08-26T16:51:34.850Z,19.48
2022-08-26T16:54:07.056Z,14.93
2022-08-26T16:56:37.640Z,15.77
2022-08-26T16:59:07.744Z,15.73
2022-08-26T17:01:35.077Z,12.85
2022-08-26T17:04:02.190Z,13.25
2022-08-26T17:06:29.820Z,17.73
2022-08-26T17:08:56.833Z,15.70
2022-08-26T17:11:23.926Z,16.90
2022-08-26T17:13:53.843Z,21.85
2022-08-26T17:16:26.410Z,19.15
2022-08-26T17:18:55.827Z,18.38
2022-08-26T17:21:28.349Z,13.90
2022-08-26T17:23:56.400Z,14.98
2022-08-26T17:26:23.454Z,21.20
2022-08-26T17:28:50.472Z,19.25
2022-08-26T17:31:17.825Z,18.60
2022-08-26T17:33:48.854Z,16.08
2022-08-26T17:36:20.289Z,18.02
2022-08-26T17:38:52.469Z,17.52
2022-08-26T17:41:21.564Z,17.48
2022-08-26T17:43:48.719Z,16.13
2022-08-26T17:46:15.827Z,13.30
2022-08-26T17:48:42.853Z,15.73
2022-08-26T17:51:15.045Z,14.00
2022-08-26T17:53:42.722Z,15.02
2022-08-26T17:56:14.804Z,20.90
2022-08-26T17:58:47.988Z,17.88
2022-08-26T18:01:19.547Z,14.68
2022-08-26T18:03:46.723Z,11.43
2022-08-26T18:06:14.589Z,12.02
2022-08-26T18:08:42.275Z,24.55
2022-08-26T18:11:16.316Z,18.92
2022-08-26T18:13:47.252Z,14.30
2022-08-26T18:16:15.462Z,17.65
2022-08-26T18:18:43.000Z,12.38
2022-08-26T18:21:19.174Z,23.92
2022-08-26T18:23:46.954Z,17.40
2022-08-26T18:26:25.289Z,9.73
2022-08-26T18:28:53.224Z,17.00
2022-08-26T18:31:20.661Z,14.27
2022-08-26T18:33:47.554Z,9.45
2022-08-26T18:36:37.895Z,12.90
2022-08-26T18:39:06.797Z,16.63
2022-08-26T18:41:39.391Z,14.90
2022-08-26T18:44:08.535Z,14.88
2022-08-26T18:46:37.815Z,16.17
2022-08-26T18:51:34.466Z,13.02
2022-08-26T18:54:03.920Z,15.10
2022-08-26T18:56:31.217Z,16.27
2022-08-26T19:01:28.290Z,9.40
2022-08-26T19:03:57.029Z,17.83
2022-08-26T19:06:26.641Z,11.20
2022-08-26T19:08:53.940Z,11.02
2022-08-26T19:11:31.371Z,13.38
2022-08-26T19:13:58.988Z,14.88
2022-08-26T19:16:27.148Z,10.10
2022-08-26T19:18:56.644Z,10.45
2022-08-26T19:21:24.304Z,11.07
2022-08-26T19:23:51.989Z,20.33
2022-08-26T19:26:19.233Z,9.18
2022-08-26T19:31:12.968Z,12.02
2022-08-26T19:33:42.811Z,19.48
2022-08-26T19:36:15.220Z,15.23
2022-08-26T19:38:42.844Z,12.20
2022-08-26T19:41:14.957Z,13.60
2022-08-26T19:43:42.674Z,14.82
2022-08-26T19:46:12.690Z,16.88
2022-08-26T19:48:43.892Z,15.30
2022-08-26T19:51:15.971Z,13.15
2022-08-26T19:53:44.594Z,19.90
2022-08-26T19:56:13.158Z,11.55
2022-08-26T19:58:41.302Z,16.83
2022-08-26T20:01:09.160Z,17.05
2022-08-26T20:03:37.746Z,14.80
2022-08-26T20:06:07.040Z,15.77
2022-08-26T20:08:35.342Z,11.02
2022-08-26T20:11:10.087Z,20.50
2022-08-26T20:13:37.141Z,17.70
2022-08-26T20:16:04.910Z,18.60
2022-08-26T20:18:50.527Z,15.98
2022-08-26T20:21:26.237Z,19.13
2022-08-26T20:24:00.588Z,18.65
2022-08-26T20:26:29.869Z,13.82
2022-08-26T20:28:57.478Z,13.95
2022-08-26T20:31:25.734Z,10.40
2022-08-26T20:33:53.518Z,18.65
2022-08-26T20:36:22.883Z,16.27
2022-08-26T20:38:50.604Z,15.85
2022-08-26T20:41:18.463Z,8.43
2022-08-26T20:43:46.437Z,14.82
2022-08-26T20:46:18.022Z,13.45
2022-08-26T20:48:45.954Z,10.15
2022-08-26T20:51:12.818Z,8.55
2022-08-26T20:53:40.153Z,15.32
2022-08-26T20:58:37.635Z,16.70
2022-08-26T21:01:07.973Z,11.82
2022-08-26T21:03:36.572Z,15.38
2022-08-26T21:06:03.875Z,14.80
2022-08-26T21:11:01.974Z,19.40
2022-08-26T21:13:42.891Z,16.17
2022-08-26T21:16:19.469Z,13.57
2022-08-26T21:18:47.123Z,21.63
2022-08-26T21:21:14.122Z,20.65
2022-08-26T21:23:41.268Z,17.98
2022-08-26T21:26:11.713Z,16.90
2022-08-26T21:28:41.025Z,12.93
2022-08-26T21:31:14.586Z,19.92
2022-08-26T21:33:42.317Z,15.32
2022-08-26T21:36:10.436Z,20.60
2022-08-26T21:38:38.243Z,13.88
2022-08-26T21:41:19.349Z,13.65
2022-08-26T21:43:48.342Z,16.95
2022-08-26T21:46:19.691Z,18.15
2022-08-26T21:48:50.877Z,16.42
2022-08-26T21:51:20.981Z,18.23
2022-08-26T21:53:48.315Z,19.02
2022-08-26T21:58:44.569Z,21.48
2022-08-26T22:01:19.124Z,15.63
2022-08-26T22:03:47.507Z,16.30
2022-08-26T22:06:20.851Z,16.48
2022-08-26T22:08:47.895Z,11.95
2022-08-26T22:11:15.795Z,18.60
2022-08-26T22:13:43.775Z,21.50
2022-08-26T22:16:11.339Z,16.25
2022-08-26T22:18:39.229Z,14.85
2022-08-26T22:21:09.260Z,23.00
2022-08-26T22:23:38.062Z,30.73
2022-08-26T22:26:09.106Z,19.42
2022-08-26T22:28:36.663Z,27.55
2022-08-26T22:31:03.443Z,15.02
2022-08-26T22:33:30.419Z,13.50
2022-08-26T22:35:57.553Z,17.27
2022-08-26T22:38:24.950Z,20.63
2022-08-26T22:41:06.585Z,18.80
2022-08-26T22:43:38.230Z,14.93
2022-08-26T22:46:09.444Z,16.55
2022-08-26T22:48:38.235Z,13.38
2022-08-26T22:51:05.447Z,11.60
2022-08-26T22:53:32.722Z,16.77
2022-08-26T22:56:03.478Z,12.45
2022-08-26T22:58:31.339Z,18.52
2022-08-26T23:00:59.295Z,17.17
2022-08-26T23:03:26.869Z,18.73
2022-08-26T23:08:23.215Z,18.65
2022-08-26T23:10:50.674Z,14.68
2022-08-26T23:13:18.331Z,19.75
2022-08-26T23:15:46.494Z,17.17
2022-08-26T23:18:15.202Z,13.32
2022-08-26T23:20:42.269Z,12.30
2022-08-26T23:23:09.499Z,19.23
2022-08-26T23:25:36.505Z,9.70
2022-08-26T23:28:04.023Z,12.95
2022-08-26T23:30:32.890Z,14.30
2022-08-26T23:33:00.397Z,19.15
2022-08-26T23:37:54.669Z,24.05
2022-08-26T23:40:32.636Z,20.70
2022-08-26T23:43:03.235Z,22.35
2022-08-26T23:45:31.588Z,17.00
2022-08-26T23:47:59.066Z,25.45
2022-08-26T23:50:48.050Z,20.45
2022-08-26T23:53:21.667Z,20.60
2022-08-26T23:55:50.937Z,19.55
2022-08-26T23:58:19.864Z,21.38
